Montauk, NY

1:11 AM EDT on October 01, 2016 (GMT -0400)
Montauk | | Change Station

Elev 7 ft 41.07 °N, 71.92 °W | Updated 17 minutes ago

Rain
Rain
61 °F
Feels Like 61 °F
N
13
Wind Variable Wind from NE
Gusts 24 mph

Today
High -- | Low -- °F
--% Chance of Precip.
Yesterday
High -- | Low -- °F
Precip. -- in
Pressure 30.23 in
Visibility -9999.0 miles
Clouds
Dew Point 60 °F
Humidity 97%
Rainfall 0.05 in
Snow Depth Not available.
6:44 AM 6:28 PM
New Moon, 0% visible
METAR KMTP 010454Z AUTO 05011G21KT 16/16 A3023 RMK AO1 SLP237 P0005 T01610156 401670150
Pressure 30.23 in
Visibility -9999.0 miles
Clouds
Dew Point 60 °F
Humidity 97%
Rainfall 0.05 in
Snow Depth Not available.
6:44 AM 6:28 PM
New Moon, 0% visible
METAR KMTP 010454Z AUTO 05011G21KT 16/16 A3023 RMK AO1 SLP237 P0005 T01610156 401670150

10-Day Weather Forecast

Almanac

Astronomy

Oct. 01, 2016 Rise Set
Actual Time
Civil Twilight
Nautical Twilight
Astronomical Twilight
Moon
Length of Visible Light
Length of Day
Tomorrow will be .
, % of the Moon is Illuminated

Today's Extremes

State Highs State Lows

Community

WunderPhotos

Upload Photos

1,942,894 photos uploaded!

WunderBlog® & News

Nearby

Air Quality

  Air Quality AQ Index Pollutant
Not available.

Snow Depth

Station Depth Elevation

Earthquake Activity

City Distance Mag. Time & Date
Minimum magnitude displayed is 2.5.

Coastal Water Temperatures

Place Temperature

Stations

Nearby Weather Stations

Station Location Temp. Windchill Dew Point Humidity Wind Precip. Elev Updated Type
                   

Watches & Warnings

There are currently no watches in effect.